Seavoyager — 9HUM8 — position and weather

sailwx.info

Track history (hours):
 
Tides and Currents Weather Stations Pressure Air Temp Water Temp Dewpoint Dewpoint Depression Visibility Wind Speed Wind Dir Waves Ship Positions

Seavoyager

Last reported at 2015-Aug-20 02:09 UTC. Time now 2015-Aug-29 23:37 UTC.
Position N 50°16' W 001°23'.
Warning: this ship's position is 9 days out of date.

Length 273 m; draft 9.3 m.

Type: Tanker. MMSI: 256439000.

Date/timePositionNaut miles runAvg speedWind from/ knotsBaromVisibWave heightAir tempDewpointWater temp
2015-Aug-20 02:09N 50°16' W 001°23'10 9.9
2015-Aug-20 01:09N 50°19' W 001°08'40 8.6
2015-Aug-19 20:29N 50°30' W 000°07'1111.5
2015-Aug-19 19:34N 50°33' E 000°09'1212.2
2015-Aug-19 18:34N 50°36' E 000°28'1211.7
2015-Aug-19 17:33N 50°42' E 000°44'1111.0
2015-Aug-19 16:34N 50°48' E 000°58'10 9.7
2015-Aug-19 15:33N 50°55' E 001°10'9 8.7
2015-Aug-19 14:33N 51°00' E 001°20'9 8.6
2015-Aug-19 13:34N 51°06' E 001°30'1010.0
2015-Aug-19 12:34N 51°12' E 001°43'1211.6
2015-Aug-19 11:33N 51°21' E 001°54'1212.4
2015-Aug-19 10:33N 51°31' E 002°06'1212.2
2015-Aug-19 09:32N 51°41' E 002°20'47 9.4
2015-Aug-19 04:31N 52°03' E 003°27'9 9.1
2015-Aug-19 03:34N 52°04' E 003°41'9 8.7
2015-Aug-19 02:34N 52°02' E 003°55'7 7.2
2015-Aug-19 01:34N 51°58' E 004°04'0 0.1
2015-Aug-19 00:33N 51°58' E 004°04'0 0.0
2015-Aug-18 23:33N 51°58' E 004°04'0 0.0
2015-Aug-18 22:33N 51°58' E 004°04'0 0.0
2015-Aug-18 21:33N 51°58' E 004°04'0 0.0
2015-Aug-18 20:33N 51°58' E 004°04'0 0.0
2015-Aug-18 19:33N 51°58' E 004°04'0 0.0
2015-Aug-18 18:33N 51°58' E 004°04'0 0.0
2015-Aug-18 17:33N 51°58' E 004°04'0 0.0
2015-Aug-18 16:30N 51°58' E 004°04'0 0.0
2015-Aug-18 15:33N 51°58' E 004°04'0 0.0
2015-Aug-18 14:33N 51°58' E 004°04'0 0.0
2015-Aug-18 13:33N 51°58' E 004°04'0 0.0
2015-Aug-18 12:33N 51°58' E 004°04'0 0.0
2015-Aug-18 11:30N 51°58' E 004°04'0 0.0
2015-Aug-18 10:33N 51°58' E 004°04'0 0.0
2015-Aug-18 09:33N 51°58' E 004°04'0 0.0
2015-Aug-18 08:33N 51°58' E 004°04'0 0.0
2015-Aug-18 07:30N 51°58' E 004°04'0 0.0
2015-Aug-18 06:33N 51°58' E 004°04'0 0.0
2015-Aug-18 05:33N 51°58' E 004°04'0 0.0
2015-Aug-18 04:33N 51°58' E 004°04'0 0.0
2015-Aug-18 04:09N 51°58' E 004°04'0 0.0
2015-Aug-18 04:06N 51°58' E 004°04'0 0.0
2015-Aug-18 03:33N 51°58' E 004°04'0 0.0
2015-Aug-18 02:33N 51°58' E 004°04'0 0.0
2015-Aug-18 01:33N 51°58' E 004°04'0 0.0
2015-Aug-18 00:33N 51°58' E 004°04'0 0.0
2015-Aug-17 23:33N 51°58' E 004°04'0 0.0
2015-Aug-17 22:33N 51°58' E 004°04'0 0.0
2015-Aug-17 21:33N 51°58' E 004°04'0 0.0
2015-Aug-17 20:33N 51°58' E 004°04'0 0.0
2015-Aug-17 19:33N 51°58' E 004°04'0 0.2
2015-Aug-17 18:34N 51°58' E 004°04'4 3.9
2015-Aug-17 17:33N 52°00' E 003°59'10 9.6
2015-Aug-17 16:34N 52°01' E 003°44'7 6.7
2015-Aug-17 15:29N 52°00' E 003°32'1110.6
2015-Aug-17 14:29N 51°59' E 003°15'46 1.3
2015-Aug-16 03:18N 51°32' E 002°15'912.1
2015-Aug-16 02:33N 51°25' E 002°05'1212.3
2015-Aug-16 01:33N 51°16' E 001°53'1313.1
2015-Aug-16 00:33N 51°05' E 001°40'1313.3
2015-Aug-15 23:33N 50°55' E 001°26'1211.8
2015-Aug-15 22:32N 50°43' E 001°22'1111.3
2015-Aug-15 21:32N 50°35' E 001°10'95 9.5
2015-Aug-15 11:33N 50°07' W 001°12'14713.0
2015-Aug-15 00:14N 49°08' W 004°40'  
2015-Aug-12 19:33N 39°21' W 009°57'1212.3
2015-Aug-12 18:33N 39°09' W 009°57'1312.4
2015-Aug-12 17:33N 38°56' W 009°57'1312.6
2015-Aug-12 16:33N 38°44' W 009°57'1312.8
2015-Aug-12 15:33N 38°31' W 009°54'1312.6
2015-Aug-12 14:33N 38°19' W 009°50'1312.7
2015-Aug-12 13:33N 38°07' W 009°46'1312.6
2015-Aug-12 12:31N 37°54' W 009°43'1212.4
2015-Aug-12 11:33N 37°42' W 009°39'1312.7
2015-Aug-12 10:30N 37°29' W 009°35'1213.1
2015-Aug-12 09:33N 37°17' W 009°32'1313.1
2015-Aug-12 08:33N 37°05' W 009°28'1413.3
2015-Aug-12 07:32N 36°51' W 009°24'1712.6
2015-Aug-12 06:12N 36°40' W 009°08'913.6
2015-Aug-12 05:33N 36°38' W 008°58'1413.4
2015-Aug-12 04:33N 36°34' W 008°41'3113.7
2015-Aug-12 02:18N 36°26' W 008°05'1013.8
2015-Aug-12 01:33N 36°23' W 007°52'1713.6
2015-Aug-12 00:20N 36°18' W 007°32'1113.8
2015-Aug-11 23:33N 36°15' W 007°20'1413.6
2015-Aug-11 22:33N 36°11' W 007°04'1413.7
2015-Aug-11 21:34N 36°07' W 006°48'1613.4
2015-Aug-11 20:22N 36°02' W 006°29'1513.8
2015-Aug-11 19:16N 35°58' W 006°11'1013.3
2015-Aug-11 18:33N 35°58' W 005°59'1312.6
2015-Aug-11 17:29N 35°57' W 005°42'21912.7
2015-Aug-11 00:19N 36°33' W 001°15'1114.0
2015-Aug-10 23:32N 36°35' W 001°01'1414.2
2015-Aug-10 22:33N 36°37' W 000°44'1413.6
2015-Aug-10 21:30N 36°39' W 000°27'1313.5
2015-Aug-10 20:32N 36°41' W 000°10'1313.4
2015-Aug-10 19:33N 36°44' E 000°06'1313.5
2015-Aug-10 18:33N 36°46' E 000°22'1413.5
2015-Aug-10 17:33N 36°48' E 000°39'1413.6
2015-Aug-10 16:33N 36°50' E 000°56'1413.7
2015-Aug-10 15:33N 36°52' E 001°13'1414.2
2015-Aug-10 14:33N 36°54' E 001°30'1514.8
2015-Aug-10 13:33N 36°57' E 001°48'1514.5
2015-Aug-10 12:31N 36°59' E 002°07'1514.1
2015-Aug-10 11:26N 37°01' E 002°26'1213.9
2015-Aug-10 10:33N 37°03' E 002°41'1414.0
2015-Aug-10 09:33N 37°06' E 002°58'  
Track history (hours):
 
Tides and Currents Weather Stations Pressure Air Temp Water Temp Dewpoint Dewpoint Depression Visibility Wind Speed Wind Dir Waves Ship Positions

Seavoyager

Last reported at 2015-Aug-20 02:09 UTC. Time now 2015-Aug-29 23:37 UTC.
Position N 50°16' W 001°23'.
Warning: this ship's position is 9 days out of date.

Length 273 m; draft 9.3 m.

Type: Tanker. MMSI: 256439000.

Date/timePositionNaut miles runAvg speedWind from/ knotsBaromVisibWave heightAir tempDewpointWater temp
2015-Aug-20 02:09N 50°16' W 001°23'10 9.9
2015-Aug-20 01:09N 50°19' W 001°08'40 8.6
2015-Aug-19 20:29N 50°30' W 000°07'1111.5
2015-Aug-19 19:34N 50°33' E 000°09'1212.2
2015-Aug-19 18:34N 50°36' E 000°28'1211.7
2015-Aug-19 17:33N 50°42' E 000°44'1111.0
2015-Aug-19 16:34N 50°48' E 000°58'10 9.7
2015-Aug-19 15:33N 50°55' E 001°10'9 8.7
2015-Aug-19 14:33N 51°00' E 001°20'9 8.6
2015-Aug-19 13:34N 51°06' E 001°30'1010.0
2015-Aug-19 12:34N 51°12' E 001°43'1211.6
2015-Aug-19 11:33N 51°21' E 001°54'1212.4
2015-Aug-19 10:33N 51°31' E 002°06'1212.2
2015-Aug-19 09:32N 51°41' E 002°20'47 9.4
2015-Aug-19 04:31N 52°03' E 003°27'9 9.1
2015-Aug-19 03:34N 52°04' E 003°41'9 8.7
2015-Aug-19 02:34N 52°02' E 003°55'7 7.2
2015-Aug-19 01:34N 51°58' E 004°04'0 0.1
2015-Aug-19 00:33N 51°58' E 004°04'0 0.0
2015-Aug-18 23:33N 51°58' E 004°04'0 0.0
2015-Aug-18 22:33N 51°58' E 004°04'0 0.0
2015-Aug-18 21:33N 51°58' E 004°04'0 0.0
2015-Aug-18 20:33N 51°58' E 004°04'0 0.0
2015-Aug-18 19:33N 51°58' E 004°04'0 0.0
2015-Aug-18 18:33N 51°58' E 004°04'0 0.0
2015-Aug-18 17:33N 51°58' E 004°04'0 0.0
2015-Aug-18 16:30N 51°58' E 004°04'0 0.0
2015-Aug-18 15:33N 51°58' E 004°04'0 0.0
2015-Aug-18 14:33N 51°58' E 004°04'0 0.0
2015-Aug-18 13:33N 51°58' E 004°04'0 0.0
2015-Aug-18 12:33N 51°58' E 004°04'0 0.0
2015-Aug-18 11:30N 51°58' E 004°04'0 0.0
2015-Aug-18 10:33N 51°58' E 004°04'0 0.0
2015-Aug-18 09:33N 51°58' E 004°04'0 0.0
2015-Aug-18 08:33N 51°58' E 004°04'0 0.0
2015-Aug-18 07:30N 51°58' E 004°04'0 0.0
2015-Aug-18 06:33N 51°58' E 004°04'0 0.0
2015-Aug-18 05:33N 51°58' E 004°04'0 0.0
2015-Aug-18 04:33N 51°58' E 004°04'0 0.0
2015-Aug-18 04:09N 51°58' E 004°04'0 0.0
2015-Aug-18 04:06N 51°58' E 004°04'0 0.0
2015-Aug-18 03:33N 51°58' E 004°04'0 0.0
2015-Aug-18 02:33N 51°58' E 004°04'0 0.0
2015-Aug-18 01:33N 51°58' E 004°04'0 0.0
2015-Aug-18 00:33N 51°58' E 004°04'0 0.0
2015-Aug-17 23:33N 51°58' E 004°04'0 0.0
2015-Aug-17 22:33N 51°58' E 004°04'0 0.0
2015-Aug-17 21:33N 51°58' E 004°04'0 0.0
2015-Aug-17 20:33N 51°58' E 004°04'0 0.0
2015-Aug-17 19:33N 51°58' E 004°04'0 0.2
2015-Aug-17 18:34N 51°58' E 004°04'4 3.9
2015-Aug-17 17:33N 52°00' E 003°59'10 9.6
2015-Aug-17 16:34N 52°01' E 003°44'7 6.7
2015-Aug-17 15:29N 52°00' E 003°32'1110.6
2015-Aug-17 14:29N 51°59' E 003°15'46 1.3
2015-Aug-16 03:18N 51°32' E 002°15'912.1
2015-Aug-16 02:33N 51°25' E 002°05'1212.3
2015-Aug-16 01:33N 51°16' E 001°53'1313.1
2015-Aug-16 00:33N 51°05' E 001°40'1313.3
2015-Aug-15 23:33N 50°55' E 001°26'1211.8
2015-Aug-15 22:32N 50°43' E 001°22'1111.3
2015-Aug-15 21:32N 50°35' E 001°10'95 9.5
2015-Aug-15 11:33N 50°07' W 001°12'14713.0
2015-Aug-15 00:14N 49°08' W 004°40'  
2015-Aug-12 19:33N 39°21' W 009°57'1212.3
2015-Aug-12 18:33N 39°09' W 009°57'1312.4
2015-Aug-12 17:33N 38°56' W 009°57'1312.6
2015-Aug-12 16:33N 38°44' W 009°57'1312.8
2015-Aug-12 15:33N 38°31' W 009°54'1312.6
2015-Aug-12 14:33N 38°19' W 009°50'1312.7
2015-Aug-12 13:33N 38°07' W 009°46'1312.6
2015-Aug-12 12:31N 37°54' W 009°43'1212.4
2015-Aug-12 11:33N 37°42' W 009°39'1312.7
2015-Aug-12 10:30N 37°29' W 009°35'1213.1
2015-Aug-12 09:33N 37°17' W 009°32'1313.1
2015-Aug-12 08:33N 37°05' W 009°28'1413.3
2015-Aug-12 07:32N 36°51' W 009°24'1712.6
2015-Aug-12 06:12N 36°40' W 009°08'913.6
2015-Aug-12 05:33N 36°38' W 008°58'1413.4
2015-Aug-12 04:33N 36°34' W 008°41'3113.7
2015-Aug-12 02:18N 36°26' W 008°05'1013.8
2015-Aug-12 01:33N 36°23' W 007°52'1713.6
2015-Aug-12 00:20N 36°18' W 007°32'1113.8
2015-Aug-11 23:33N 36°15' W 007°20'1413.6
2015-Aug-11 22:33N 36°11' W 007°04'1413.7
2015-Aug-11 21:34N 36°07' W 006°48'1613.4
2015-Aug-11 20:22N 36°02' W 006°29'1513.8
2015-Aug-11 19:16N 35°58' W 006°11'1013.3
2015-Aug-11 18:33N 35°58' W 005°59'1312.6
2015-Aug-11 17:29N 35°57' W 005°42'21912.7
2015-Aug-11 00:19N 36°33' W 001°15'1114.0
2015-Aug-10 23:32N 36°35' W 001°01'1414.2
2015-Aug-10 22:33N 36°37' W 000°44'1413.6
2015-Aug-10 21:30N 36°39' W 000°27'1313.5
2015-Aug-10 20:32N 36°41' W 000°10'1313.4
2015-Aug-10 19:33N 36°44' E 000°06'1313.5
2015-Aug-10 18:33N 36°46' E 000°22'1413.5
2015-Aug-10 17:33N 36°48' E 000°39'1413.6
2015-Aug-10 16:33N 36°50' E 000°56'1413.7
2015-Aug-10 15:33N 36°52' E 001°13'1414.2
2015-Aug-10 14:33N 36°54' E 001°30'1514.8
2015-Aug-10 13:33N 36°57' E 001°48'1514.5
2015-Aug-10 12:31N 36°59' E 002°07'1514.1
2015-Aug-10 11:26N 37°01' E 002°26'1213.9
2015-Aug-10 10:33N 37°03' E 002°41'1414.0
2015-Aug-10 09:33N 37°06' E 002°58'  

Dump ship's entire track history